Time;durP1;ratioP1;P1;durP2;ratioP2;P2;SDS_P1;SDS_P2;PMS_P1;PMS_P2;Temp;Humidity;BMP_temperature;BMP_pressure;BME280_temperature;BME280_humidity;BME280_pressure;Samples;Min_cycle;Max_cycle;Signal;HPM_P1;HPM_P2
2022/04/08 00:00:47;;;;;;;1.53;1.30;;;10.30;99.90;;;;;;5049873;28;20206;-71
2022/04/08 00:03:14;;;;;;;0.87;0.80;;;10.30;99.90;;;;;;5052791;28;20210;-70
2022/04/08 00:05:40;;;;;;;3.33;1.27;;;10.30;99.90;;;;;;5051553;28;20201;-71
2022/04/08 00:08:08;;;;;;;1.50;1.00;;;10.40;99.90;;;;;;5052266;28;20251;-69
2022/04/08 00:10:35;;;;;;;2.47;1.10;;;10.30;99.90;;;;;;5051777;28;20214;-70
2022/04/08 00:13:03;;;;;;;1.93;1.13;;;10.30;99.90;;;;;;5051519;28;20249;-71
2022/04/08 00:15:33;;;;;;;1.33;1.10;;;10.30;99.90;;;;;;5057666;28;20288;-69
2022/04/08 00:18:00;;;;;;;1.67;0.93;;;10.30;99.90;;;;;;5036562;28;20205;-69
2022/04/08 00:20:27;;;;;;;2.00;0.83;;;10.30;99.90;;;;;;5056179;28;20292;-70
2022/04/08 00:22:54;;;;;;;2.33;1.03;;;10.30;99.90;;;;;;5052944;28;20206;-71
2022/04/08 00:25:20;;;;;;;2.07;0.93;;;10.30;99.90;;;;;;5047223;28;20202;-70
2022/04/08 00:27:47;;;;;;;1.87;1.10;;;10.30;99.90;;;;;;5047558;28;20303;-70
2022/04/08 00:30:15;;;;;;;2.13;1.10;;;10.30;99.90;;;;;;5049661;28;20294;-70
2022/04/08 00:32:42;;;;;;;0.87;0.70;;;10.30;99.90;;;;;;5066536;28;20584;-69
2022/04/08 00:35:09;;;;;;;0.83;0.73;;;10.30;99.90;;;;;;5049474;28;20206;-68
2022/04/08 00:37:37;;;;;;;1.43;0.83;;;10.30;99.90;;;;;;5050536;28;20249;-69
2022/04/08 00:40:04;;;;;;;1.37;0.80;;;10.20;99.90;;;;;;5055618;28;20209;-69
2022/04/08 00:42:31;;;;;;;1.83;0.83;;;10.20;99.90;;;;;;5052417;28;20240;-69
2022/04/08 00:44:59;;;;;;;2.40;1.07;;;10.20;99.90;;;;;;5050165;28;20202;-70
2022/04/08 00:47:27;;;;;;;0.93;0.70;;;10.20;99.90;;;;;;5038568;28;20197;-70
2022/04/08 00:49:55;;;;;;;2.03;0.70;;;10.20;99.90;;;;;;5050936;28;20347;-70
2022/04/08 00:52:23;;;;;;;1.90;1.10;;;10.20;99.90;;;;;;5056801;28;20227;-69
2022/04/08 00:54:50;;;;;;;1.07;0.90;;;10.20;99.90;;;;;;5059177;28;20220;-69
2022/04/08 00:57:17;;;;;;;2.80;1.20;;;10.20;99.90;;;;;;5049522;28;20293;-69
2022/04/08 00:59:44;;;;;;;1.23;0.90;;;10.20;99.90;;;;;;5051988;28;20570;-69
2022/04/08 01:02:11;;;;;;;1.93;1.00;;;10.30;99.90;;;;;;5052487;28;20206;-68
2022/04/08 01:04:39;;;;;;;2.20;1.10;;;10.20;99.90;;;;;;5052103;28;20209;-68
2022/04/08 01:07:06;;;;;;;1.07;0.90;;;10.20;99.90;;;;;;5049779;28;20208;-69
2022/04/08 01:09:34;;;;;;;1.33;1.07;;;10.20;99.90;;;;;;5050881;28;20324;-69
2022/04/08 01:12:02;;;;;;;1.50;1.10;;;10.20;99.90;;;;;;5051566;28;20205;-70
2022/04/08 01:14:29;;;;;;;1.13;0.90;;;10.20;99.90;;;;;;5052765;28;20241;-69
2022/04/08 01:16:56;;;;;;;1.27;0.97;;;10.20;99.90;;;;;;5050471;28;20210;-68
2022/04/08 01:19:23;;;;;;;4.50;1.20;;;10.20;99.90;;;;;;5049897;28;20201;-69
2022/04/08 01:21:51;;;;;;;2.30;0.70;;;10.20;99.90;;;;;;5051030;28;20230;-70
2022/04/08 01:24:19;;;;;;;1.77;1.20;;;10.20;99.90;;;;;;5065340;28;20209;-68
2022/04/08 01:26:47;;;;;;;1.73;0.90;;;10.20;99.90;;;;;;5048156;28;20205;-69
2022/04/08 01:29:15;;;;;;;1.13;1.00;;;10.20;99.90;;;;;;5043787;28;20218;-69
2022/04/08 01:31:44;;;;;;;1.70;1.00;;;10.20;99.90;;;;;;5059163;28;20706;-70
2022/04/08 01:34:11;;;;;;;1.33;0.90;;;10.20;99.90;;;;;;5057776;28;20296;-69
2022/04/08 01:36:38;;;;;;;2.40;1.20;;;10.20;99.90;;;;;;5043709;28;20264;-69
2022/04/08 01:39:05;;;;;;;1.17;1.07;;;10.20;99.90;;;;;;5054992;28;20234;-69
2022/04/08 01:41:32;;;;;;;0.70;0.70;;;10.10;99.90;;;;;;5051853;28;20202;-70
2022/04/08 01:44:00;;;;;;;1.60;1.00;;;10.10;99.90;;;;;;5049703;28;20210;-70
2022/04/08 01:46:27;;;;;;;2.30;0.97;;;10.10;99.90;;;;;;5050971;28;20210;-70
2022/04/08 01:48:54;;;;;;;2.40;1.30;;;10.10;99.90;;;;;;5050690;28;20218;-69
2022/04/08 01:51:23;;;;;;;1.33;0.80;;;10.10;99.90;;;;;;5051752;28;20572;-70
2022/04/08 01:53:50;;;;;;;2.60;1.10;;;10.10;99.90;;;;;;5051781;28;20583;-70
2022/04/08 01:56:17;;;;;;;3.00;1.00;;;10.10;99.90;;;;;;5050326;28;20210;-69
2022/04/08 01:58:44;;;;;;;1.40;1.10;;;10.10;99.90;;;;;;5049484;28;20213;-69
2022/04/08 02:01:12;;;;;;;1.00;0.90;;;10.00;99.90;;;;;;5051721;28;20256;-70
2022/04/08 02:03:39;;;;;;;1.63;1.10;;;10.00;99.90;;;;;;5053598;28;20213;-70
2022/04/08 02:06:06;;;;;;;2.23;1.40;;;10.00;99.90;;;;;;5053679;28;20202;-69
2022/04/08 02:08:33;;;;;;;2.90;1.07;;;10.00;99.90;;;;;;5054348;28;20573;-70
2022/04/08 02:11:00;;;;;;;1.33;0.90;;;9.90;99.90;;;;;;5055035;28;20220;-70
2022/04/08 02:13:26;;;;;;;3.30;1.17;;;9.90;99.90;;;;;;5054918;28;20206;-69
2022/04/08 02:15:53;;;;;;;1.60;1.17;;;9.90;99.90;;;;;;5042411;28;20675;-69
2022/04/08 02:18:21;;;;;;;3.60;1.30;;;9.90;99.90;;;;;;5054482;28;20205;-70
2022/04/08 02:20:50;;;;;;;2.90;1.43;;;9.80;99.90;;;;;;5054819;28;20245;-70
2022/04/08 02:23:17;;;;;;;4.40;1.20;;;9.80;99.90;;;;;;5054884;28;20296;-70
2022/04/08 02:25:46;;;;;;;1.30;0.80;;;9.80;99.90;;;;;;5053841;28;20662;-70
2022/04/08 02:28:13;;;;;;;2.70;1.17;;;9.80;99.90;;;;;;5053729;28;20210;-70
2022/04/08 02:30:40;;;;;;;1.73;1.00;;;9.80;99.90;;;;;;5053933;28;20210;-70
2022/04/08 02:33:06;;;;;;;2.13;1.20;;;9.80;99.90;;;;;;5054371;28;20210;-70
2022/04/08 02:35:35;;;;;;;3.23;1.00;;;9.70;99.90;;;;;;5053210;28;20217;-69
2022/04/08 02:38:02;;;;;;;1.10;0.90;;;9.70;99.90;;;;;;5053957;28;20240;-69
2022/04/08 02:40:28;;;;;;;2.50;1.10;;;9.70;99.90;;;;;;5067942;28;20324;-70
2022/04/08 02:42:55;;;;;;;2.20;0.80;;;9.70;99.90;;;;;;5053442;28;20240;-70
2022/04/08 02:45:22;;;;;;;2.67;1.20;;;9.60;99.90;;;;;;5052797;28;20285;-70
2022/04/08 02:47:49;;;;;;;3.97;1.07;;;9.60;99.90;;;;;;5053552;28;20719;-70
2022/04/08 02:50:16;;;;;;;2.30;1.03;;;9.60;99.90;;;;;;5053365;28;20260;-70
2022/04/08 02:52:44;;;;;;;3.00;1.20;;;9.50;99.90;;;;;;5062576;28;20236;-70
2022/04/08 02:55:11;;;;;;;1.93;0.90;;;9.50;99.90;;;;;;5049873;28;20229;-70
2022/04/08 02:57:45;;;;;;;2.30;1.23;;;9.50;99.90;;;;;;5053370;28;20210;-70
2022/04/08 03:00:14;;;;;;;3.73;1.27;;;9.40;99.90;;;;;;5052840;28;20211;-70
2022/04/08 03:02:41;;;;;;;3.37;1.03;;;9.50;99.90;;;;;;5052907;28;20212;-69
2022/04/08 03:05:09;;;;;;;2.17;0.87;;;9.50;99.90;;;;;;5050823;28;20241;-70
2022/04/08 03:07:36;;;;;;;2.70;1.03;;;9.50;99.90;;;;;;5053482;28;20246;-70
2022/04/08 03:10:06;;;;;;;2.27;0.60;;;9.50;99.90;;;;;;5053334;28;20312;-70
2022/04/08 03:12:34;;;;;;;2.10;1.23;;;9.50;99.90;;;;;;5054139;28;20198;-70
2022/04/08 03:15:01;;;;;;;2.13;1.00;;;9.50;99.90;;;;;;5052680;28;20691;-69
2022/04/08 03:17:28;;;;;;;2.70;1.00;;;9.50;99.90;;;;;;5053350;28;20730;-70
2022/04/08 03:19:56;;;;;;;3.20;1.20;;;9.50;99.90;;;;;;5050386;28;20569;-69
2022/04/08 03:22:23;;;;;;;1.17;0.70;;;9.50;99.90;;;;;;5053302;28;20237;-70
2022/04/08 03:24:51;;;;;;;2.23;1.03;;;9.40;99.90;;;;;;5050921;28;20297;-70
2022/04/08 03:27:19;;;;;;;2.27;0.77;;;9.40;99.90;;;;;;5046219;28;20248;-69
2022/04/08 03:29:48;;;;;;;1.90;1.00;;;9.40;99.90;;;;;;5052754;28;20237;-69
2022/04/08 03:32:15;;;;;;;2.93;1.17;;;9.40;99.90;;;;;;5061772;28;20710;-69
2022/04/08 03:34:42;;;;;;;1.67;0.90;;;9.40;99.90;;;;;;5051245;28;20214;-70
2022/04/08 03:37:10;;;;;;;1.40;1.30;;;9.40;99.90;;;;;;5052980;28;20208;-69
2022/04/08 03:39:37;;;;;;;2.20;1.00;;;9.40;99.90;;;;;;5069390;28;20607;-69
2022/04/08 03:42:04;;;;;;;2.70;1.10;;;9.40;99.90;;;;;;5054229;28;20297;-70
2022/04/08 03:44:32;;;;;;;2.30;0.80;;;9.40;99.90;;;;;;5051312;28;20296;-69
2022/04/08 03:46:59;;;;;;;2.90;1.13;;;9.30;99.90;;;;;;5053192;28;20667;-70
2022/04/08 03:49:26;;;;;;;2.37;1.23;;;9.40;99.90;;;;;;5051258;28;20317;-69
2022/04/08 03:51:54;;;;;;;4.40;1.20;;;9.40;99.90;;;;;;5053024;28;20201;-69
2022/04/08 03:54:21;;;;;;;3.20;1.10;;;9.40;99.90;;;;;;5051033;28;20210;-70
2022/04/08 03:56:48;;;;;;;3.53;1.27;;;9.40;99.90;;;;;;5052644;28;20216;-69
2022/04/08 03:59:16;;;;;;;3.93;0.80;;;9.40;99.90;;;;;;5052502;28;20256;-69
2022/04/08 04:01:44;;;;;;;4.90;1.17;;;9.40;99.90;;;;;;5052859;28;20220;-69
2022/04/08 04:04:11;;;;;;;0.87;0.80;;;9.40;99.90;;;;;;5050358;28;20202;-70
2022/04/08 04:06:38;;;;;;;4.43;0.90;;;9.40;99.90;;;;;;5052832;28;20233;-69
2022/04/08 04:09:05;;;;;;;4.73;1.30;;;9.40;99.90;;;;;;5052126;28;20845;-70
2022/04/08 04:11:32;;;;;;;2.67;1.00;;;9.40;99.90;;;;;;5052102;28;20221;-69
2022/04/08 04:13:59;;;;;;;2.70;1.30;;;9.30;99.90;;;;;;5051171;28;20210;-68
2022/04/08 04:16:26;;;;;;;3.63;1.13;;;9.30;99.90;;;;;;5052401;28;20206;-69
2022/04/08 04:18:55;;;;;;;3.20;1.10;;;9.20;99.90;;;;;;5061185;28;20205;-69
2022/04/08 04:21:22;;;;;;;2.73;1.10;;;9.10;99.90;;;;;;5048558;28;20975;-68
2022/04/08 04:23:49;;;;;;;3.70;1.57;;;9.00;99.90;;;;;;5049137;28;20205;-69
2022/04/08 04:26:16;;;;;;;2.90;1.50;;;9.00;99.90;;;;;;5047784;28;20224;-70
2022/04/08 04:28:43;;;;;;;2.03;1.00;;;9.00;99.90;;;;;;5051157;28;20214;-69
2022/04/08 04:31:12;;;;;;;5.10;1.50;;;9.00;99.90;;;;;;5051858;28;20225;-69
2022/04/08 04:33:39;;;;;;;2.33;1.27;;;8.90;99.90;;;;;;5049844;28;20206;-69
2022/04/08 04:36:07;;;;;;;4.87;1.53;;;9.00;99.90;;;;;;5050293;28;20212;-69
2022/04/08 04:38:34;;;;;;;2.73;1.50;;;8.90;99.90;;;;;;5053448;28;20237;-69
2022/04/08 04:41:01;;;;;;;3.47;1.27;;;8.90;99.90;;;;;;5061793;28;20244;-69
2022/04/08 04:43:28;;;;;;;2.57;1.30;;;8.90;99.90;;;;;;5050283;28;20292;-68
2022/04/08 04:45:55;;;;;;;2.93;1.33;;;9.00;99.90;;;;;;5051921;28;20318;-70
2022/04/08 04:48:22;;;;;;;3.17;1.30;;;9.00;99.90;;;;;;5051715;28;20209;-69
2022/04/08 04:50:49;;;;;;;3.00;1.20;;;9.00;99.90;;;;;;5050594;28;20229;-68
2022/04/08 04:53:18;;;;;;;3.60;1.77;;;9.00;99.90;;;;;;5051382;28;20205;-69
2022/04/08 04:55:45;;;;;;;2.30;1.37;;;9.10;99.90;;;;;;5051981;28;20568;-69
2022/04/08 04:58:11;;;;;;;2.40;1.13;;;9.10;99.90;;;;;;5052021;28;20229;-69
2022/04/08 05:00:38;;;;;;;4.87;1.00;;;9.10;99.90;;;;;;5050149;28;20702;-70
2022/04/08 05:03:06;;;;;;;2.03;1.40;;;9.10;99.90;;;;;;5050229;28;20331;-69
2022/04/08 05:05:33;;;;;;;3.47;1.50;;;9.10;99.90;;;;;;5045201;28;20206;-70
2022/04/08 05:08:02;;;;;;;2.40;1.27;;;9.10;99.90;;;;;;5051678;28;20216;-68
2022/04/08 05:10:31;;;;;;;3.57;1.43;;;9.10;99.90;;;;;;5052751;28;20305;-70
2022/04/08 05:12:59;;;;;;;2.97;1.10;;;9.10;99.90;;;;;;5051024;28;20621;-70
2022/04/08 05:15:27;;;;;;;2.37;1.10;;;9.10;99.90;;;;;;5050789;28;20214;-70
2022/04/08 05:17:54;;;;;;;2.70;1.10;;;9.10;99.90;;;;;;5051086;28;20198;-69
2022/04/08 05:20:21;;;;;;;2.80;1.60;;;9.10;99.90;;;;;;5050436;28;20202;-69
2022/04/08 05:22:48;;;;;;;2.53;1.00;;;9.00;99.90;;;;;;5050949;28;20673;-70
2022/04/08 05:25:14;;;;;;;5.37;1.30;;;8.90;99.90;;;;;;5051277;28;20716;-70
2022/04/08 05:27:45;;;;;;;1.33;1.03;;;8.90;99.90;;;;;;5051669;28;20297;-68
2022/04/08 05:30:15;;;;;;;2.47;1.40;;;8.80;99.90;;;;;;5051314;28;20218;-69
2022/04/08 05:32:42;;;;;;;2.07;1.33;;;8.80;99.90;;;;;;5056581;28;20237;-69
2022/04/08 05:35:10;;;;;;;3.37;1.20;;;8.90;99.90;;;;;;5050019;28;20284;-69
2022/04/08 05:37:39;;;;;;;2.57;1.20;;;8.90;99.90;;;;;;5052211;28;20269;-69
2022/04/08 05:40:07;;;;;;;2.07;1.10;;;8.90;99.90;;;;;;5069378;28;20197;-69
2022/04/08 05:42:34;;;;;;;2.37;1.10;;;9.00;99.90;;;;;;5054519;28;20670;-70
2022/04/08 05:45:02;;;;;;;3.37;1.43;;;9.00;99.90;;;;;;5054584;28;20725;-71
2022/04/08 05:47:29;;;;;;;3.43;1.60;;;9.10;99.90;;;;;;5055017;28;20296;-70
2022/04/08 05:49:59;;;;;;;3.27;1.33;;;9.00;99.90;;;;;;5054456;28;20336;-70
2022/04/08 05:52:26;;;;;;;3.10;1.20;;;9.10;99.90;;;;;;5041155;28;20237;-70
2022/04/08 05:54:53;;;;;;;2.17;1.30;;;9.10;99.90;;;;;;5052426;28;20678;-70
2022/04/08 05:57:20;;;;;;;1.47;1.10;;;9.10;99.90;;;;;;5054053;28;20294;-70
2022/04/08 05:59:47;;;;;;;3.00;1.10;;;9.20;99.90;;;;;;5053472;28;20201;-70
2022/04/08 06:02:15;;;;;;;3.37;1.00;;;9.20;99.90;;;;;;5054494;28;20206;-70
2022/04/08 06:04:42;;;;;;;3.03;1.30;;;9.20;99.90;;;;;;5051741;28;20209;-70
2022/04/08 06:07:09;;;;;;;3.03;1.13;;;9.20;99.90;;;;;;5054634;28;20208;-69
2022/04/08 06:09:36;;;;;;;1.20;0.90;;;9.20;99.90;;;;;;5054248;28;20226;-71
2022/04/08 06:12:03;;;;;;;2.87;0.93;;;9.20;99.90;;;;;;5063014;28;20303;-70
2022/04/08 06:14:30;;;;;;;3.17;1.07;;;9.20;99.90;;;;;;5050243;28;20209;-70
2022/04/08 06:16:57;;;;;;;2.23;0.93;;;9.20;99.90;;;;;;5066596;28;20212;-70
2022/04/08 06:19:26;;;;;;;3.10;1.20;;;9.30;99.90;;;;;;5069808;28;20300;-72
2022/04/08 06:21:54;;;;;;;2.00;1.23;;;9.20;99.90;;;;;;5065246;28;20251;-72
2022/04/08 06:24:21;;;;;;;1.73;0.93;;;9.20;99.90;;;;;;5059824;28;20205;-71
2022/04/08 06:26:48;;;;;;;2.50;0.93;;;9.20;99.90;;;;;;5057159;28;20335;-71
2022/04/08 06:29:15;;;;;;;2.80;0.90;;;9.20;99.90;;;;;;5052472;28;20205;-70
2022/04/08 06:31:42;;;;;;;2.63;1.10;;;9.20;99.90;;;;;;5045727;28;20307;-70
2022/04/08 06:34:09;;;;;;;2.37;1.20;;;9.10;99.90;;;;;;5052288;28;20211;-71
2022/04/08 06:36:37;;;;;;;4.57;1.20;;;9.10;99.90;;;;;;5067817;28;20206;-71
2022/04/08 06:39:05;;;;;;;2.90;1.37;;;9.10;99.90;;;;;;5051426;28;20728;-71
2022/04/08 06:41:32;;;;;;;4.73;1.03;;;9.10;99.90;;;;;;5050050;28;20253;-70
2022/04/08 06:43:59;;;;;;;4.13;1.20;;;9.10;99.90;;;;;;5052642;28;20286;-72
2022/04/08 06:46:26;;;;;;;2.33;0.60;;;9.00;99.90;;;;;;5049707;28;20206;-70
2022/04/08 06:48:54;;;;;;;1.90;0.80;;;8.80;99.90;;;;;;5053847;28;20298;-71
2022/04/08 06:51:21;;;;;;;1.57;1.10;;;8.60;99.90;;;;;;5051387;28;20229;-69
2022/04/08 06:53:49;;;;;;;0.70;0.70;;;8.40;99.90;;;;;;5058871;28;20288;-70
2022/04/08 06:56:16;;;;;;;1.20;0.93;;;8.30;99.90;;;;;;5048728;28;20300;-69
2022/04/08 06:58:43;;;;;;;1.33;1.03;;;8.30;99.90;;;;;;5046943;28;20209;-69
2022/04/08 07:01:09;;;;;;;2.00;1.27;;;8.40;99.90;;;;;;5048942;28;20232;-69
2022/04/08 07:03:37;;;;;;;1.77;1.10;;;8.50;99.90;;;;;;5052041;28;20233;-71
2022/04/08 07:06:04;;;;;;;2.50;1.53;;;8.50;99.90;;;;;;5060775;28;20212;-70
2022/04/08 07:08:31;;;;;;;3.20;1.10;;;8.60;99.90;;;;;;5068823;28;20573;-69
2022/04/08 07:10:59;;;;;;;2.50;1.37;;;8.70;99.90;;;;;;5064310;28;20268;-69
2022/04/08 07:13:26;;;;;;;3.67;1.30;;;8.80;99.90;;;;;;5062548;28;20208;-70
2022/04/08 07:15:54;;;;;;;1.87;1.30;;;8.90;99.90;;;;;;5055316;28;20210;-69
2022/04/08 07:18:21;;;;;;;4.00;1.13;;;9.00;99.90;;;;;;5049840;28;20217;-71
2022/04/08 07:20:48;;;;;;;1.40;1.17;;;9.20;99.90;;;;;;5051693;28;20226;-70
2022/04/08 07:23:16;;;;;;;1.87;1.07;;;9.20;99.90;;;;;;5040052;28;20214;-70
2022/04/08 07:25:43;;;;;;;2.97;1.10;;;9.30;99.90;;;;;;5054993;28;20206;-70
2022/04/08 07:28:11;;;;;;;1.87;1.20;;;9.30;99.90;;;;;;5053663;28;20206;-68
2022/04/08 07:30:38;;;;;;;2.53;1.10;;;9.40;99.90;;;;;;5055740;28;20233;-70
2022/04/08 07:33:05;;;;;;;3.80;1.33;;;9.40;99.90;;;;;;5057193;28;20293;-70
2022/04/08 07:35:33;;;;;;;2.23;0.83;;;9.60;99.90;;;;;;5054542;28;20659;-70
2022/04/08 07:38:03;;;;;;;2.53;0.80;;;9.70;99.90;;;;;;5056291;28;20650;-72
2022/04/08 07:40:30;;;;;;;3.33;1.10;;;9.90;99.90;;;;;;5067266;28;20198;-70
2022/04/08 07:42:57;;;;;;;2.27;1.17;;;10.00;99.90;;;;;;5053132;28;20265;-70
2022/04/08 07:45:29;;;;;;;1.27;1.10;;;10.20;99.90;;;;;;5053139;28;20268;-71
2022/04/08 07:47:58;;;;;;;1.80;1.00;;;10.20;99.90;;;;;;5051359;28;20585;-70
2022/04/08 07:50:26;;;;;;;2.43;0.90;;;10.30;99.90;;;;;;5048537;28;20705;-71
2022/04/08 07:52:53;;;;;;;7.20;1.20;;;10.20;99.90;;;;;;5052742;28;20213;-69
2022/04/08 07:55:23;;;;;;;3.27;1.10;;;10.20;99.90;;;;;;5051047;28;20302;-72
2022/04/08 07:57:52;;;;;;;1.97;0.87;;;10.10;99.90;;;;;;5062937;28;20222;-69
2022/04/08 08:00:20;;;;;;;1.97;1.10;;;10.20;99.90;;;;;;5051790;28;20260;-71
2022/04/08 08:02:49;;;;;;;2.60;1.13;;;10.40;99.90;;;;;;5051714;28;20294;-70
2022/04/08 08:05:17;;;;;;;1.37;1.00;;;10.40;99.90;;;;;;5051600;28;20212;-67
2022/04/08 08:07:45;;;;;;;2.40;1.07;;;10.50;99.90;;;;;;5053360;28;20568;-69
2022/04/08 08:10:15;;;;;;;2.37;1.13;;;10.40;99.90;;;;;;5050079;28;20226;-69
2022/04/08 08:12:42;;;;;;;1.30;1.00;;;10.40;99.90;;;;;;5051639;28;20209;-72
2022/04/08 08:15:10;;;;;;;1.00;0.87;;;10.30;99.90;;;;;;5051430;28;20242;-70
2022/04/08 08:17:37;;;;;;;5.83;1.27;;;10.40;99.90;;;;;;5048620;28;20258;-69
2022/04/08 08:20:07;;;;;;;1.97;1.10;;;10.40;99.90;;;;;;5062072;28;20301;-70
2022/04/08 08:22:34;;;;;;;2.37;0.97;;;10.50;99.90;;;;;;5052102;28;20230;-72
2022/04/08 08:25:01;;;;;;;2.80;1.13;;;10.60;99.90;;;;;;5049407;28;20291;-72
2022/04/08 08:27:28;;;;;;;1.63;0.90;;;10.60;99.90;;;;;;5049918;28;20210;-72
2022/04/08 08:29:56;;;;;;;1.93;0.90;;;10.60;99.90;;;;;;5049135;28;20245;-71
2022/04/08 08:32:23;;;;;;;2.17;0.93;;;10.60;99.90;;;;;;5051804;28;20214;-72
2022/04/08 08:34:50;;;;;;;2.20;1.10;;;10.60;99.90;;;;;;5052337;28;20210;-72
2022/04/08 08:37:19;;;;;;;4.47;2.00;;;10.80;99.90;;;;;;5050924;28;20754;-71
2022/04/08 08:39:46;;;;;;;1.30;0.90;;;10.90;99.90;;;;;;5062267;28;20240;-71
2022/04/08 08:42:13;;;;;;;2.87;0.93;;;10.90;99.90;;;;;;5044939;28;20213;-71
2022/04/08 08:44:40;;;;;;;1.27;1.17;;;11.00;99.90;;;;;;5042572;28;20206;-71
2022/04/08 08:47:12;;;;;;;1.37;0.90;;;11.10;99.90;;;;;;5055864;28;20240;-71
2022/04/08 08:49:46;;;;;;;1.13;0.80;;;11.20;99.90;;;;;;5061180;28;20202;-71
2022/04/08 08:52:13;;;;;;;2.50;1.10;;;11.50;99.90;;;;;;5048028;28;20213;-71
2022/04/08 08:54:42;;;;;;;2.83;1.33;;;11.60;99.90;;;;;;5042893;28;20233;-72
2022/04/08 08:57:10;;;;;;;2.40;1.10;;;11.70;99.60;;;;;;5045610;28;20658;-70
2022/04/08 08:59:37;;;;;;;2.40;1.13;;;11.80;98.80;;;;;;5060848;28;20236;-70
2022/04/08 09:02:05;;;;;;;1.20;0.87;;;11.70;98.80;;;;;;5052037;28;20252;-72
2022/04/08 09:04:32;;;;;;;3.07;1.00;;;11.70;98.90;;;;;;5050365;28;20630;-71
2022/04/08 09:06:59;;;;;;;1.60;0.80;;;11.60;98.50;;;;;;5045999;28;20237;-71
2022/04/08 09:09:30;;;;;;;4.10;1.40;;;11.50;98.70;;;;;;5053577;28;20202;-72
2022/04/08 09:12:09;;;;;;;3.07;1.60;;;11.40;98.80;;;;;;5055313;28;20249;-72
2022/04/08 09:14:36;;;;;;;2.77;1.47;;;11.30;99.10;;;;;;5060073;28;20208;-71
2022/04/08 09:17:03;;;;;;;3.70;1.40;;;11.30;99.40;;;;;;5065571;28;20290;-70
2022/04/08 09:19:33;;;;;;;1.30;1.00;;;11.40;98.50;;;;;;5065200;28;20237;-72
2022/04/08 09:22:00;;;;;;;1.97;1.10;;;11.60;98.20;;;;;;5058046;28;20598;-74
2022/04/08 09:24:28;;;;;;;0.90;0.80;;;11.80;98.30;;;;;;5061205;28;20661;-70
2022/04/08 09:26:56;;;;;;;2.57;1.50;;;11.90;97.30;;;;;;5054423;28;20213;-71
2022/04/08 09:29:25;;;;;;;1.80;1.00;;;11.90;96.80;;;;;;5060021;28;20205;-69
2022/04/08 09:31:53;;;;;;;0.97;0.80;;;11.90;96.50;;;;;;5073912;28;20217;-72
2022/04/08 09:34:21;;;;;;;1.03;0.90;;;11.70;96.40;;;;;;5055554;28;20206;-73
2022/04/08 09:36:48;;;;;;;4.00;0.77;;;11.60;96.40;;;;;;5052897;28;20214;-74
2022/04/08 09:39:16;;;;;;;1.37;0.90;;;11.50;96.50;;;;;;5057728;28;20313;-73
2022/04/08 09:41:45;;;;;;;1.37;0.80;;;11.50;96.60;;;;;;5057083;28;20206;-74
2022/04/08 09:44:14;;;;;;;2.30;1.07;;;11.50;96.70;;;;;;5052750;28;20217;-73
2022/04/08 09:46:42;;;;;;;1.57;1.00;;;11.60;96.30;;;;;;5048678;28;20241;-73
2022/04/08 09:49:09;;;;;;;1.43;0.70;;;11.70;96.60;;;;;;5054446;28;20212;-74
2022/04/08 09:51:38;;;;;;;1.23;0.90;;;11.80;97.00;;;;;;5058212;28;20697;-74
2022/04/08 09:54:06;;;;;;;2.33;1.00;;;11.90;96.10;;;;;;5057064;28;20186;-75
2022/04/08 09:56:35;;;;;;;1.63;1.20;;;12.10;96.50;;;;;;5061353;28;20236;-74
2022/04/08 09:59:05;;;;;;;1.13;1.03;;;12.30;96.20;;;;;;5055634;28;20222;-73
2022/04/08 10:01:32;;;;;;;2.30;1.43;;;12.30;95.80;;;;;;5049883;28;20234;-74
2022/04/08 10:04:02;;;;;;;0.97;0.90;;;12.40;96.60;;;;;;5055331;28;20201;-74
2022/04/08 10:06:30;;;;;;;1.30;0.80;;;12.60;95.60;;;;;;5055346;28;20206;-71
2022/04/08 10:08:57;;;;;;;2.30;1.00;;;12.60;95.60;;;;;;5056295;28;20206;-69
2022/04/08 10:11:34;;;;;;;1.80;1.10;;;12.90;95.30;;;;;;5056114;28;20702;-69
2022/04/08 10:14:13;;;;;;;2.50;0.93;;;13.20;94.80;;;;;;5056110;28;20289;-69
2022/04/08 10:16:40;;;;;;;1.43;1.10;;;13.60;94.30;;;;;;5054923;28;20701;-69
2022/04/08 10:19:11;;;;;;;3.70;1.00;;;14.00;92.50;;;;;;5051181;28;20202;-71
2022/04/08 10:21:39;;;;;;;1.13;0.80;;;14.20;91.30;;;;;;5050204;28;20226;-70
2022/04/08 10:24:13;;;;;;;3.90;1.00;;;14.20;90.60;;;;;;5051433;28;20659;-70
2022/04/08 10:26:56;;;;;;;2.13;1.00;;;14.10;89.20;;;;;;5051052;28;20210;-70
2022/04/08 10:29:23;;;;;;;1.33;1.10;;;13.80;88.80;;;;;;5051370;28;20206;-70
2022/04/08 10:31:57;;;;;;;0.80;0.80;;;13.40;88.70;;;;;;5055767;28;20232;-70
2022/04/08 10:34:26;;;;;;;2.23;1.57;;;13.00;89.80;;;;;;5055218;28;20206;-70
2022/04/08 10:36:53;;;;;;;1.53;1.13;;;12.60;91.70;;;;;;5046948;28;20238;-70
2022/04/08 10:39:22;;;;;;;2.40;1.13;;;12.20;93.50;;;;;;5057936;28;20241;-70
2022/04/08 10:41:51;;;;;;;1.77;1.00;;;11.80;95.10;;;;;;5051009;28;20283;-70
2022/04/08 10:44:30;;;;;;;2.47;1.13;;;11.50;96.60;;;;;;5052056;28;20651;-70
2022/04/08 10:47:00;;;;;;;1.40;1.30;;;11.40;97.90;;;;;;5060465;28;20197;-71
2022/04/08 10:49:28;;;;;;;2.80;2.10;;;11.40;99.10;;;;;;5060876;28;20643;-71
2022/04/08 10:51:55;;;;;;;3.10;1.30;;;11.60;99.90;;;;;;5053864;28;20309;-71
2022/04/08 10:54:34;;;;;;;0.90;0.90;;;11.70;99.80;;;;;;5054634;28;20706;-72
2022/04/08 10:57:01;;;;;;;1.93;1.00;;;11.90;99.90;;;;;;5058469;28;20249;-70
2022/04/08 10:59:28;;;;;;;2.63;1.00;;;11.90;99.90;;;;;;5060495;28;20255;-71
2022/04/08 11:02:02;;;;;;;2.33;1.23;;;12.00;99.90;;;;;;5054771;28;20296;-71
2022/04/08 11:04:30;;;;;;;2.20;0.90;;;12.10;99.90;;;;;;5059629;28;20222;-70
2022/04/08 11:07:03;;;;;;;1.67;0.83;;;11.90;99.90;;;;;;5056640;28;20216;-71
2022/04/08 11:09:31;;;;;;;1.10;1.00;;;11.60;99.90;;;;;;5053542;28;20213;-69
2022/04/08 11:11:58;;;;;;;2.33;0.70;;;11.20;99.90;;;;;;5054202;28;20244;-70
2022/04/08 11:14:28;;;;;;;2.53;0.97;;;10.70;99.90;;;;;;5058123;28;20193;-68
2022/04/08 11:16:54;;;;;;;1.00;0.70;;;10.30;99.90;;;;;;5048315;28;20315;-69
2022/04/08 11:19:22;;;;;;;1.00;0.70;;;9.80;99.90;;;;;;5058698;28;20343;-69
2022/04/08 11:21:51;;;;;;;1.03;0.77;;;9.50;99.90;;;;;;5059968;28;20217;-70
2022/04/08 11:24:19;;;;;;;2.27;0.70;;;9.20;99.90;;;;;;5055419;28;20256;-70
2022/04/08 11:26:47;;;;;;;0.83;0.70;;;9.10;99.90;;;;;;5054279;28;20213;-67
2022/04/08 11:29:16;;;;;;;1.80;0.70;;;9.50;99.90;;;;;;5056546;28;20774;-68
2022/04/08 11:31:44;;;;;;;1.37;0.67;;;10.10;99.90;;;;;;5053200;28;20225;-67
2022/04/08 11:34:13;;;;;;;1.07;0.70;;;10.80;99.90;;;;;;5057429;28;20213;-69
2022/04/08 11:36:40;;;;;;;0.77;0.77;;;11.30;99.90;;;;;;5055854;28;20213;-72
2022/04/08 11:39:09;;;;;;;1.60;0.60;;;11.30;99.90;;;;;;5046003;28;20316;-69
2022/04/08 11:41:37;;;;;;;1.40;0.90;;;11.10;99.90;;;;;;5050381;28;20305;-72
2022/04/08 11:44:05;;;;;;;1.83;1.00;;;10.90;99.90;;;;;;5054109;28;20206;-70
2022/04/08 11:46:32;;;;;;;1.43;1.00;;;10.70;99.90;;;;;;5059144;28;20630;-70
2022/04/08 11:48:59;;;;;;;1.33;0.90;;;10.80;99.90;;;;;;5060865;28;20225;-72
2022/04/08 11:51:26;;;;;;;0.73;0.73;;;10.90;99.90;;;;;;5045372;28;20305;-69
2022/04/08 11:53:54;;;;;;;2.80;1.03;;;11.00;99.90;;;;;;5053427;28;20301;-69
2022/04/08 11:56:25;;;;;;;0.83;0.83;;;11.20;99.90;;;;;;5059721;28;20706;-70
2022/04/08 11:58:59;;;;;;;1.13;1.07;;;11.50;99.90;;;;;;5058977;28;20212;-69
2022/04/08 12:01:30;;;;;;;1.17;1.00;;;11.90;99.90;;;;;;5053972;28;20208;-71
2022/04/08 12:04:01;;;;;;;1.17;0.90;;;12.10;99.90;;;;;;5053281;28;20213;-70
2022/04/08 12:06:35;;;;;;;1.23;1.13;;;12.10;99.90;;;;;;5054428;28;20214;-71
2022/04/08 12:09:02;;;;;;;1.73;1.30;;;12.10;99.90;;;;;;5054309;28;20201;-68
2022/04/08 12:11:31;;;;;;;1.17;1.07;;;12.30;99.90;;;;;;5058370;28;20226;-69
2022/04/08 12:13:58;;;;;;;1.20;1.10;;;12.50;99.90;;;;;;5054042;28;20671;-70
2022/04/08 12:16:30;;;;;;;1.50;1.00;;;12.70;99.90;;;;;;5052677;28;20555;-70
2022/04/08 12:18:57;;;;;;;1.40;1.03;;;12.90;99.90;;;;;;5048470;28;20206;-71
2022/04/08 12:21:25;;;;;;;1.30;1.20;;;13.20;99.90;;;;;;5065867;28;20660;-71
2022/04/08 12:23:54;;;;;;;1.63;1.00;;;13.20;99.90;;;;;;5053361;28;20242;-71
2022/04/08 12:26:26;;;;;;;1.03;1.00;;;13.10;99.90;;;;;;5046881;28;20221;-71
2022/04/08 12:29:06;;;;;;;1.00;1.00;;;12.90;99.90;;;;;;5041902;28;20284;-71
2022/04/08 12:31:33;;;;;;;1.50;1.00;;;12.80;99.90;;;;;;5039139;28;20217;-70
2022/04/08 12:34:02;;;;;;;2.07;1.20;;;12.60;99.90;;;;;;5040313;28;20212;-70
2022/04/08 12:36:29;;;;;;;1.40;1.30;;;12.50;99.90;;;;;;5038393;28;20216;-70
2022/04/08 12:38:56;;;;;;;2.07;1.20;;;12.40;99.90;;;;;;5045529;28;20262;-70
2022/04/08 12:41:24;;;;;;;2.17;0.80;;;12.30;99.90;;;;;;5034724;28;20203;-70
2022/04/08 12:43:54;;;;;;;0.70;0.70;;;12.20;99.90;;;;;;5045692;28;20210;-70
2022/04/08 12:46:22;;;;;;;0.83;0.83;;;12.10;99.90;;;;;;5048276;28;20206;-70
2022/04/08 12:48:50;;;;;;;1.10;1.00;;;12.00;99.60;;;;;;5046645;28;20210;-70
2022/04/08 12:51:17;;;;;;;1.20;1.10;;;11.80;99.80;;;;;;5044032;28;20567;-70
2022/04/08 12:53:44;;;;;;;1.97;1.03;;;11.60;99.90;;;;;;5040444;28;20290;-70